Radiance Of The Seas — C6SE7 — position and weather

sailwx.info

Track history (hours):
 
Tides and Currents Weather Stations Pressure Air Temp Water Temp Dewpoint Dewpoint Depression Visibility Wind Speed Wind Dir Waves Ship Positions

Radiance Of The Seas

Operator: Royal Caribbean Cruises Ltd

Last reported at 2017-Apr-23 14:00 UTC. Time now 2017-Apr-27 07:10 UTC.
Position S 34°42' E 178°18'.

Type: Passenger vessel. MMSI: 311319000.

Wind from 090 at 42 knots

Barometer 1011.0 mb
Air temperature 19.0 ° C
Water temperature 21.7 ° C

Date/timePositionNaut miles runAvg speedWind from/ knotsBaromVisibWave heightAir tempDewpointWater temp
2017-Apr-23 14:00S 34°42' E 178°18'   090 / 421011.0 19.0 21.7
2017-Apr-17 19:10S 33°50' E 151°21'211.7
2017-Apr-17 19:01S 33°49' E 151°23'714.5
2017-Apr-17 18:30S 33°44' E 151°29'714.5
2017-Apr-17 18:00S 33°38' E 151°34'714.7
2017-Apr-17 17:30S 33°32' E 151°39'2414.5
2017-Apr-17 15:52S 33°13' E 151°57'514.5
2017-Apr-17 15:30S 33°09' E 152°01'714.4
2017-Apr-17 15:00S 33°03' E 152°06'714.4
2017-Apr-17 14:30S 32°58' E 152°11'1414.4
2017-Apr-17 13:30S 32°46' E 152°21'714.4
2017-Apr-17 13:01S 32°41' E 152°27'714.4
2017-Apr-17 12:30S 32°35' E 152°32'714.5
2017-Apr-17 12:00S 32°29' E 152°37'28714.4
2017-Apr-16 16:05S 27°50' E 153°54'214.8
2017-Apr-16 15:59S 27°49' E 153°53'714.8
2017-Apr-16 15:31S 27°42' E 153°51'815.1
2017-Apr-16 15:01S 27°35' E 153°48'1515.1
2017-Apr-16 14:00S 27°20' E 153°44'23 4.0
2017-Apr-16 08:18S 27°09' E 153°21'915.4
2017-Apr-16 07:43S 27°17' E 153°15'811.0
2017-Apr-16 07:01S 27°23' E 153°10'0 0.0
2017-Apr-16 06:48S 27°23' E 153°10'0 0.0
2017-Apr-15 22:32S 27°23' E 153°10'0 0.0
2017-Apr-15 22:24S 27°23' E 153°10'0 0.0
2017-Apr-15 21:59S 27°23' E 153°10'0 0.0
2017-Apr-15 21:29S 27°23' E 153°10'2 3.5
2017-Apr-15 21:00S 27°21' E 153°11'713.4
2017-Apr-15 20:30S 27°16' E 153°16'815.7
2017-Apr-15 20:00S 27°10' E 153°21'816.0
2017-Apr-15 19:30S 27°03' E 153°17'815.9
2017-Apr-15 19:00S 26°56' E 153°12'714.5
2017-Apr-15 18:30S 26°49' E 153°10'714.7
2017-Apr-15 18:00S 26°42' E 153°12'  
Track history (hours):
 
Tides and Currents Weather Stations Pressure Air Temp Water Temp Dewpoint Dewpoint Depression Visibility Wind Speed Wind Dir Waves Ship Positions

Radiance Of The Seas

Operator: Royal Caribbean Cruises Ltd

Last reported at 2017-Apr-23 14:00 UTC. Time now 2017-Apr-27 07:10 UTC.
Position S 34°42' E 178°18'.

Type: Passenger vessel. MMSI: 311319000.

Wind from 090 at 42 knots

Barometer 1011.0 mb
Air temperature 19.0 ° C
Water temperature 21.7 ° C

Date/timePositionNaut miles runAvg speedWind from/ knotsBaromVisibWave heightAir tempDewpointWater temp
2017-Apr-23 14:00S 34°42' E 178°18'   090 / 421011.0 19.0 21.7
2017-Apr-17 19:10S 33°50' E 151°21'211.7
2017-Apr-17 19:01S 33°49' E 151°23'714.5
2017-Apr-17 18:30S 33°44' E 151°29'714.5
2017-Apr-17 18:00S 33°38' E 151°34'714.7
2017-Apr-17 17:30S 33°32' E 151°39'2414.5
2017-Apr-17 15:52S 33°13' E 151°57'514.5
2017-Apr-17 15:30S 33°09' E 152°01'714.4
2017-Apr-17 15:00S 33°03' E 152°06'714.4
2017-Apr-17 14:30S 32°58' E 152°11'1414.4
2017-Apr-17 13:30S 32°46' E 152°21'714.4
2017-Apr-17 13:01S 32°41' E 152°27'714.4
2017-Apr-17 12:30S 32°35' E 152°32'714.5
2017-Apr-17 12:00S 32°29' E 152°37'28714.4
2017-Apr-16 16:05S 27°50' E 153°54'214.8
2017-Apr-16 15:59S 27°49' E 153°53'714.8
2017-Apr-16 15:31S 27°42' E 153°51'815.1
2017-Apr-16 15:01S 27°35' E 153°48'1515.1
2017-Apr-16 14:00S 27°20' E 153°44'23 4.0
2017-Apr-16 08:18S 27°09' E 153°21'915.4
2017-Apr-16 07:43S 27°17' E 153°15'811.0
2017-Apr-16 07:01S 27°23' E 153°10'0 0.0
2017-Apr-16 06:48S 27°23' E 153°10'0 0.0
2017-Apr-15 22:32S 27°23' E 153°10'0 0.0
2017-Apr-15 22:24S 27°23' E 153°10'0 0.0
2017-Apr-15 21:59S 27°23' E 153°10'0 0.0
2017-Apr-15 21:29S 27°23' E 153°10'2 3.5
2017-Apr-15 21:00S 27°21' E 153°11'713.4
2017-Apr-15 20:30S 27°16' E 153°16'815.7
2017-Apr-15 20:00S 27°10' E 153°21'816.0
2017-Apr-15 19:30S 27°03' E 153°17'815.9
2017-Apr-15 19:00S 26°56' E 153°12'714.5
2017-Apr-15 18:30S 26°49' E 153°10'714.7
2017-Apr-15 18:00S 26°42' E 153°12'  

Dump ship's entire track history